Osaka, Japan
Current Conditions -  °F | °C
As of 6:00 PM on Thursday 18 Dec 2014 (Local Time) from RJOO Reporting Station
Rain Showers Rain Showers  
Wind Chill: 31°   Ceiling: Unl
Heat Index: 37°   Visibility: 6mi
Dew Point: 25°   Wind: 8mph
Humidity: 60%   Direction: 310°NW
Pressure: 30.33"   Gusts: NA
Location:  34.68°N, 135.5°E
Report Text: RJOO 180900Z 31007KT 9999 VCSH FEW020 03/M04 Q1027
Loading
Personal Weather Stations






























Interactive Weather Map New forecast layout! Learn more

10-Day Weather Forecast

Advertisements
Track Severe Weather on mobile